Time;durP1;ratioP1;P1;durP2;ratioP2;P2;SDS_P1;SDS_P2;PMS_P1;PMS_P2;Temp;Humidity;BMP_temperature;BMP_pressure;BME280_temperature;BME280_humidity;BME280_pressure;Samples;Min_cycle;Max_cycle;Signal;HPM_P1;HPM_P2
2022/04/15 00:00:43;;;;;;;23.92;12.50;;;;;;;11.21;82.18;101213.97;4997057;28;20051;-54
2022/04/15 00:03:11;;;;;;;22.83;12.25;;;;;;;11.25;82.26;101215.69;4996598;28;20065;-55
2022/04/15 00:05:40;;;;;;;17.35;10.10;;;;;;;11.28;81.78;101207.88;4996654;28;20069;-56
2022/04/15 00:08:08;;;;;;;22.70;12.82;;;;;;;11.30;81.49;101207.88;4996619;28;20054;-55
2022/04/15 00:10:35;;;;;;;20.23;11.02;;;;;;;11.31;81.64;101220.84;4997357;28;20109;-55
2022/04/15 00:13:03;;;;;;;18.63;9.57;;;;;;;11.32;81.43;101222.56;4995893;28;20482;-56
2022/04/15 00:15:30;;;;;;;25.27;13.45;;;;;;;11.33;81.30;101216.50;4995998;28;20475;-55
2022/04/15 00:17:57;;;;;;;21.50;11.15;;;;;;;11.35;80.75;101217.38;4996639;28;20050;-56
2022/04/15 00:20:26;;;;;;;18.80;11.30;;;;;;;11.34;80.21;101217.38;4996865;28;20181;-56
2022/04/15 00:22:53;;;;;;;20.08;12.10;;;;;;;11.34;79.85;101214.78;4997225;28;20047;-56
2022/04/15 00:25:21;;;;;;;20.42;10.13;;;;;;;11.32;79.87;101219.13;4997056;28;20042;-55
2022/04/15 00:27:47;;;;;;;24.23;12.82;;;;;;;11.32;79.54;101221.72;4997288;28;20066;-55
2022/04/15 00:30:15;;;;;;;18.02;10.27;;;;;;;11.30;79.40;101219.13;4997604;28;20046;-56
2022/04/15 00:32:42;;;;;;;17.25;10.07;;;;;;;11.29;79.06;101222.59;4997127;28;20069;-56
2022/04/15 00:35:10;;;;;;;17.83;10.23;;;;;;;11.29;79.05;101217.41;4996713;28;20061;-55
2022/04/15 00:37:37;;;;;;;20.10;10.90;;;;;;;11.29;78.60;101208.75;4996483;28;20050;-55
2022/04/15 00:40:06;;;;;;;15.60;9.55;;;;;;;11.29;78.20;101207.00;4996805;28;20045;-55
2022/04/15 00:42:33;;;;;;;18.23;10.93;;;;;;;11.28;78.13;101202.69;4996085;28;20399;-56
2022/04/15 00:45:02;;;;;;;20.35;11.27;;;;;;;11.28;77.81;101202.69;4996259;28;20057;-55
2022/04/15 00:47:46;;;;;;;14.15;8.52;;;;;;;11.27;78.07;101192.31;4996067;28;20430;-56
2022/04/15 00:50:17;;;;;;;14.25;8.95;;;;;;;11.26;77.70;101186.25;4995408;28;20105;-56
2022/04/15 00:52:48;;;;;;;18.95;11.07;;;;;;;11.22;78.17;101183.69;4995935;28;20452;-56
2022/04/15 00:55:18;;;;;;;17.98;11.57;;;;;;;11.18;77.92;101182.84;4995722;28;20055;-56
2022/04/15 00:57:52;;;;;;;21.38;10.93;;;;;;;11.16;77.83;101191.50;4996103;28;20050;-56
2022/04/15 01:00:23;;;;;;;18.90;11.15;;;;;;;11.14;77.94;101191.50;4995473;28;20050;-56
2022/04/15 01:02:57;;;;;;;20.25;10.65;;;;;;;11.13;77.54;101189.78;4995084;28;20042;-56
2022/04/15 01:05:26;;;;;;;18.48;10.90;;;;;;;11.09;77.80;101188.06;4995368;28;20132;-56
2022/04/15 01:07:55;;;;;;;21.42;10.75;;;;;;;11.08;77.86;101191.53;4995665;28;20057;-56
2022/04/15 01:10:23;;;;;;;19.48;10.70;;;;;;;11.07;77.92;101189.81;4995469;28;20073;-56
2022/04/15 01:12:54;;;;;;;20.40;12.13;;;;;;;11.05;77.70;101189.81;4995294;28;20050;-56
2022/04/15 01:15:23;;;;;;;17.38;10.05;;;;;;;11.03;77.92;101188.09;4995191;28;20077;-56
2022/04/15 01:17:56;;;;;;;16.65;10.05;;;;;;;11.03;77.82;101186.34;4994674;28;20054;-56
2022/04/15 01:20:24;;;;;;;14.27;8.68;;;;;;;11.02;77.96;101186.38;4994946;28;20050;-55
2022/04/15 01:22:59;;;;;;;18.73;11.10;;;;;;;11.02;78.18;101187.22;4994858;28;20061;-55
2022/04/15 01:25:26;;;;;;;21.98;11.20;;;;;;;11.01;78.31;101189.81;4989355;28;20062;-54
2022/04/15 01:27:54;;;;;;;19.75;10.20;;;;;;;11.02;78.28;101191.56;4975372;28;20059;-56
2022/04/15 01:30:22;;;;;;;15.90;9.18;;;;;;;11.02;78.01;101195.00;4975026;28;20097;-56
2022/04/15 01:32:50;;;;;;;16.40;8.98;;;;;;;11.01;77.85;101182.91;4975458;28;20077;-56
2022/04/15 01:35:18;;;;;;;12.23;7.95;;;;;;;11.01;78.19;101190.69;4975523;28;20066;-55
2022/04/15 01:37:48;;;;;;;13.88;9.52;;;;;;;11.02;78.65;101183.75;4975358;28;20479;-56
2022/04/15 01:40:20;;;;;;;18.40;9.52;;;;;;;11.02;78.30;101191.56;4975645;28;20058;-56
2022/04/15 01:42:48;;;;;;;17.58;10.88;;;;;;;11.02;78.23;101181.19;4974801;28;20420;-56
2022/04/15 01:45:20;;;;;;;22.63;11.50;;;;;;;11.03;78.01;101182.91;4986040;28;20065;-56
2022/04/15 01:47:49;;;;;;;20.48;11.48;;;;;;;11.00;78.71;101173.41;4994794;28;20058;-56
2022/04/15 01:50:17;;;;;;;18.88;10.20;;;;;;;10.99;78.52;101182.03;4994650;28;20069;-55
2022/04/15 01:52:45;;;;;;;17.70;9.40;;;;;;;10.99;78.30;101176.84;4994289;28;20077;-56
2022/04/15 01:55:12;;;;;;;20.88;10.75;;;;;;;10.98;78.54;101180.31;4994445;28;20058;-56
2022/04/15 01:57:41;;;;;;;20.17;12.00;;;;;;;10.97;78.25;101178.59;4994520;28;20046;-56
2022/04/15 02:00:10;;;;;;;16.70;9.45;;;;;;;10.95;78.31;101180.34;4994210;28;20065;-56
2022/04/15 02:02:37;;;;;;;17.75;9.88;;;;;;;10.95;78.08;101175.16;4994041;28;20069;-54
2022/04/15 02:05:07;;;;;;;24.77;12.82;;;;;;;10.95;78.59;101179.47;4993922;28;20367;-56
2022/04/15 02:07:35;;;;;;;21.45;11.70;;;;;;;10.93;78.06;101170.81;4994130;28;20065;-56
2022/04/15 02:10:06;;;;;;;22.27;11.73;;;;;;;10.90;78.01;101171.66;4993795;28;20333;-55
2022/04/15 02:12:34;;;;;;;20.02;11.85;;;;;;;10.88;78.21;101175.13;4994470;28;20061;-56
2022/04/15 02:15:03;;;;;;;21.80;11.73;;;;;;;10.84;78.40;101176.00;4994433;28;20053;-56
2022/04/15 02:17:30;;;;;;;23.45;12.15;;;;;;;10.83;78.26;101184.66;4992770;28;20065;-54
2022/04/15 02:19:58;;;;;;;20.38;11.27;;;;;;;10.81;78.28;101178.59;4994567;28;20065;-56
2022/04/15 02:22:25;;;;;;;21.48;12.85;;;;;;;10.80;78.66;101182.06;4994284;28;20054;-54
2022/04/15 02:24:53;;;;;;;23.45;12.93;;;;;;;10.80;78.70;101189.84;4994348;28;20081;-56
2022/04/15 02:27:23;;;;;;;20.88;12.73;;;;;;;10.81;79.04;101188.97;4994101;28;20054;-56
2022/04/15 02:29:53;;;;;;;18.08;10.07;;;;;;;10.80;79.21;101179.47;4994354;28;20054;-52
2022/04/15 02:32:27;;;;;;;17.73;10.43;;;;;;;10.82;79.61;101177.75;4994115;28;20138;-55
2022/04/15 02:34:54;;;;;;;22.20;12.15;;;;;;;10.83;79.36;101185.53;4993985;28;20403;-56
2022/04/15 02:37:22;;;;;;;16.30;10.00;;;;;;;10.86;79.57;101185.50;4993745;28;20046;-55
2022/04/15 02:39:53;;;;;;;18.67;9.80;;;;;;;10.89;79.41;101184.63;4993715;28;20078;-55
2022/04/15 02:42:23;;;;;;;21.55;11.43;;;;;;;10.92;79.06;101189.81;4993989;28;20061;-55
2022/04/15 02:44:52;;;;;;;23.35;11.68;;;;;;;10.92;79.71;101180.31;4993790;28;20050;-55
2022/04/15 02:47:19;;;;;;;16.85;9.30;;;;;;;10.92;79.12;101185.50;4993641;28;20090;-56
2022/04/15 02:49:48;;;;;;;16.00;8.77;;;;;;;10.95;79.24;101184.66;4993959;28;20046;-55
2022/04/15 02:52:16;;;;;;;29.13;16.33;;;;;;;10.95;78.96;101182.94;4993749;28;20053;-55
2022/04/15 02:54:44;;;;;;;31.15;15.85;;;;;;;10.97;79.23;101182.91;4993404;28;20054;-54
2022/04/15 02:57:12;;;;;;;39.30;19.92;;;;;;;10.95;79.22;101184.66;4993806;28;20058;-55
2022/04/15 02:59:40;;;;;;;37.65;21.45;;;;;;;10.91;78.82;101186.38;4993763;28;20065;-55
2022/04/15 03:02:07;;;;;;;49.30;26.30;;;;;;;10.85;79.52;101182.94;4993686;28;20054;-56
2022/04/15 03:04:35;;;;;;;45.53;21.40;;;;;;;10.80;79.74;101187.25;4993696;28;20057;-55
2022/04/15 03:07:10;;;;;;;47.15;23.95;;;;;;;10.72;80.17;101198.50;4993335;28;20065;-53
2022/04/15 03:09:41;;;;;;;46.17;23.55;;;;;;;10.66;80.65;101197.66;4993375;28;20055;-55
2022/04/15 03:12:09;;;;;;;46.25;23.83;;;;;;;10.60;80.33;101193.34;4993793;28;20054;-57
2022/04/15 03:14:37;;;;;;;41.80;21.77;;;;;;;10.56;80.48;101191.63;4993293;28;20046;-55
2022/04/15 03:17:05;;;;;;;40.83;20.13;;;;;;;10.54;80.74;101188.16;4993304;28;20062;-56
2022/04/15 03:19:33;;;;;;;59.10;28.27;;;;;;;10.50;81.35;101191.63;4993773;28;20129;-57
2022/04/15 03:22:04;;;;;;;60.95;28.73;;;;;;;10.43;81.52;101189.91;4983909;28;20376;-57
2022/04/15 03:24:41;;;;;;;50.90;25.98;;;;;;;10.37;81.87;101189.88;4973815;28;20051;-56
2022/04/15 03:27:10;;;;;;;61.38;28.15;;;;;;;10.32;82.08;101187.28;4974104;28;20062;-56
2022/04/15 03:29:38;;;;;;;49.95;24.48;;;;;;;10.26;82.25;101189.03;4976434;28;20050;-55
2022/04/15 03:32:06;;;;;;;55.78;26.50;;;;;;;10.21;82.20;101190.75;4977620;28;20130;-56
2022/04/15 03:34:34;;;;;;;53.72;26.17;;;;;;;10.17;81.62;101183.81;4977334;28;20495;-57
2022/04/15 03:37:02;;;;;;;42.95;22.40;;;;;;;10.11;81.99;101188.13;4977265;28;20501;-56
2022/04/15 03:39:31;;;;;;;49.25;23.48;;;;;;;10.05;81.97;101188.13;4976781;28;20369;-56
2022/04/15 03:42:01;;;;;;;46.03;22.15;;;;;;;10.01;82.44;101186.41;4977034;28;20141;-56
2022/04/15 03:44:28;;;;;;;54.33;23.65;;;;;;;9.96;82.34;101192.44;4981722;28;20095;-55
2022/04/15 03:46:58;;;;;;;42.08;20.17;;;;;;;9.90;82.81;101188.13;4996217;28;20061;-56
2022/04/15 03:49:28;;;;;;;42.38;21.67;;;;;;;9.85;81.97;101178.56;4996527;28;20054;-53
2022/04/15 03:51:58;;;;;;;56.85;25.73;;;;;;;9.81;82.68;101183.75;4993614;28;20133;-55
2022/04/15 03:54:29;;;;;;;45.53;21.48;;;;;;;9.77;82.65;101186.34;4986324;28;20065;-55
2022/04/15 03:56:57;;;;;;;44.25;20.88;;;;;;;9.75;83.35;101188.91;4996357;28;20066;-56
2022/04/15 03:59:28;;;;;;;52.22;23.63;;;;;;;9.75;83.50;101193.25;4996083;28;20149;-56
2022/04/15 04:01:58;;;;;;;53.30;26.17;;;;;;;9.74;83.43;101188.91;4995862;28;20529;-55
2022/04/15 04:04:28;;;;;;;56.00;26.75;;;;;;;9.70;84.03;101195.81;4996247;28;20050;-56
2022/04/15 04:06:58;;;;;;;50.78;24.17;;;;;;;9.67;84.10;101200.13;4996725;28;20133;-57
2022/04/15 04:09:28;;;;;;;53.78;24.80;;;;;;;9.67;84.42;101200.13;4996437;28;20054;-54
2022/04/15 04:11:56;;;;;;;63.67;27.05;;;;;;;9.68;84.41;101201.84;4996999;28;20146;-55
2022/04/15 04:14:23;;;;;;;56.40;24.90;;;;;;;9.68;84.97;101201.84;4996271;28;20057;-56
2022/04/15 04:16:53;;;;;;;49.30;22.77;;;;;;;9.69;84.42;101208.75;4996200;28;20058;-54
2022/04/15 04:19:20;;;;;;;44.95;21.52;;;;;;;9.71;85.10;101207.03;4996831;28;20050;-57
2022/04/15 04:21:48;;;;;;;49.38;23.77;;;;;;;9.74;84.57;101207.03;4996488;28;20069;-57
2022/04/15 04:24:16;;;;;;;52.58;23.67;;;;;;;9.77;84.97;101212.22;4996371;28;20054;-55
2022/04/15 04:26:43;;;;;;;48.25;21.83;;;;;;;9.79;84.71;101210.50;4996432;28;20050;-57
2022/04/15 04:29:11;;;;;;;42.38;20.20;;;;;;;9.82;84.91;101201.03;4996346;28;20078;-56
2022/04/15 04:31:38;;;;;;;50.17;22.67;;;;;;;9.86;85.29;101209.66;4996619;28;20054;-56
2022/04/15 04:34:07;;;;;;;49.45;22.42;;;;;;;9.89;84.94;101201.94;4983811;28;20057;-56
2022/04/15 04:36:35;;;;;;;44.65;21.77;;;;;;;9.92;84.80;101204.50;4976956;28;20069;-56
2022/04/15 04:39:03;;;;;;;49.78;22.80;;;;;;;9.95;84.88;101207.13;4976839;28;20062;-56
2022/04/15 04:41:33;;;;;;;71.60;33.00;;;;;;;9.98;85.34;101206.25;4975588;28;20349;-54
2022/04/15 04:44:00;;;;;;;57.67;28.30;;;;;;;9.99;85.14;101206.25;4976917;28;20058;-56
2022/04/15 04:46:29;;;;;;;62.20;27.38;;;;;;;10.00;84.54;101205.38;4995870;28;20058;-55
2022/04/15 04:48:56;;;;;;;64.43;30.88;;;;;;;10.02;85.06;101208.84;4995640;28;20062;-54
2022/04/15 04:51:37;;;;;;;60.13;28.85;;;;;;;10.06;85.27;101208.00;4995932;28;20058;-53
2022/04/15 04:54:05;;;;;;;51.10;24.85;;;;;;;10.11;84.65;101214.03;4995907;28;20053;-52
2022/04/15 04:56:32;;;;;;;57.00;27.38;;;;;;;10.15;84.28;101208.84;4995774;28;20058;-55
2022/04/15 04:59:00;;;;;;;48.42;23.42;;;;;;;10.18;84.62;101217.50;4995816;28;20054;-57
2022/04/15 05:01:27;;;;;;;55.78;26.33;;;;;;;10.23;85.01;101217.53;4987419;28;20092;-56
2022/04/15 05:03:54;;;;;;;49.85;23.30;;;;;;;10.27;84.85;101216.66;4992096;28;20042;-56
2022/04/15 05:06:22;;;;;;;50.08;24.15;;;;;;;10.32;84.81;101222.72;4995723;28;20065;-56
2022/04/15 05:08:51;;;;;;;51.38;24.73;;;;;;;10.35;85.40;101223.56;4995401;28;20077;-57
2022/04/15 05:11:19;;;;;;;54.03;24.67;;;;;;;10.40;84.72;101220.97;4995290;28;20058;-56
2022/04/15 05:13:47;;;;;;;50.80;23.85;;;;;;;10.44;85.43;101222.75;4992518;28;20467;-56
2022/04/15 05:16:15;;;;;;;55.85;27.65;;;;;;;10.49;84.89;101233.97;4995251;28;20473;-57
2022/04/15 05:18:43;;;;;;;56.03;26.88;;;;;;;10.53;84.97;101233.09;4994866;28;20183;-56
2022/04/15 05:21:10;;;;;;;60.00;28.10;;;;;;;10.57;85.12;101224.47;4995333;28;20403;-56
2022/04/15 05:23:38;;;;;;;57.55;29.48;;;;;;;10.62;85.10;101233.09;4995363;28;20054;-56
2022/04/15 05:26:10;;;;;;;50.10;23.60;;;;;;;10.67;84.54;101231.38;4995167;28;20061;-57
2022/04/15 05:28:38;;;;;;;56.67;26.48;;;;;;;10.72;85.19;101244.31;4995113;28;20058;-56
2022/04/15 05:31:08;;;;;;;48.28;24.90;;;;;;;10.76;84.61;101235.66;4994827;28;20467;-56
2022/04/15 05:33:38;;;;;;;43.72;22.00;;;;;;;10.81;84.93;101243.44;4995205;28;20050;-57
2022/04/15 05:36:08;;;;;;;44.40;21.42;;;;;;;10.84;84.44;101239.13;4995195;28;20072;-57
2022/04/15 05:38:38;;;;;;;44.05;21.98;;;;;;;10.88;84.41;101245.16;4995130;28;20055;-57
2022/04/15 05:41:20;;;;;;;36.38;17.48;;;;;;;10.90;84.77;101233.91;4995019;28;20050;-56
2022/04/15 05:43:47;;;;;;;33.28;17.40;;;;;;;10.92;85.35;101241.69;4987993;28;20050;-57
2022/04/15 05:46:15;;;;;;;28.10;15.38;;;;;;;10.94;84.67;101240.84;4992793;28;20800;-57
2022/04/15 05:48:43;;;;;;;34.40;17.92;;;;;;;10.94;84.91;101240.84;4994464;28;20514;-57
2022/04/15 05:51:10;;;;;;;32.60;15.82;;;;;;;10.96;85.48;101249.50;4994809;28;20065;-55
2022/04/15 05:53:38;;;;;;;42.22;21.10;;;;;;;11.00;85.72;101247.75;4993621;28;20061;-57
2022/04/15 05:56:05;;;;;;;53.47;27.33;;;;;;;10.89;84.19;101257.25;4994208;28;20448;-56
2022/04/15 05:58:34;;;;;;;59.35;27.38;;;;;;;10.75;83.90;101254.69;4994260;28;20383;-57
2022/04/15 06:01:02;;;;;;;63.67;29.38;;;;;;;10.65;84.06;101259.03;4993603;28;20061;-55
2022/04/15 06:03:32;;;;;;;58.10;28.83;;;;;;;10.57;83.92;101254.72;4989411;28;20062;-55
2022/04/15 06:06:00;;;;;;;52.47;26.00;;;;;;;10.53;84.57;101263.34;4983980;28;20435;-57
2022/04/15 06:08:28;;;;;;;55.92;26.70;;;;;;;10.49;84.17;101256.44;4983035;28;20522;-57
2022/04/15 06:10:55;;;;;;;53.10;24.42;;;;;;;10.47;84.77;101255.56;4984353;28;20057;-57
2022/04/15 06:13:25;;;;;;;61.25;28.23;;;;;;;10.47;84.82;101264.22;4985695;28;20057;-56
2022/04/15 06:15:56;;;;;;;56.92;27.08;;;;;;;10.47;85.53;101264.22;4988305;28;20177;-56
2022/04/15 06:18:24;;;;;;;54.72;25.80;;;;;;;10.47;85.31;101269.41;4993216;28;20124;-53
2022/04/15 06:20:53;;;;;;;62.17;28.85;;;;;;;10.47;84.81;101269.41;4986298;28;20051;-56
2022/04/15 06:23:21;;;;;;;64.00;27.92;;;;;;;10.47;85.45;101271.13;4985631;28;20479;-53
2022/04/15 06:25:48;;;;;;;66.25;29.85;;;;;;;10.45;85.08;101273.72;4985917;28;20047;-57
2022/04/15 06:28:16;;;;;;;72.63;30.45;;;;;;;10.47;85.64;101279.75;4983163;28;20054;-57
2022/04/15 06:30:43;;;;;;;63.88;26.88;;;;;;;10.47;85.32;101284.94;4976359;28;20057;-57
2022/04/15 06:33:17;;;;;;;68.43;28.88;;;;;;;10.47;85.59;101287.53;4984478;28;20069;-56
2022/04/15 06:35:45;;;;;;;72.20;29.98;;;;;;;10.43;85.39;101288.41;4984797;28;20468;-57
2022/04/15 06:38:13;;;;;;;81.43;30.75;;;;;;;10.34;85.37;101289.22;4983297;28;20124;-57
2022/04/15 06:40:41;;;;;;;63.92;25.05;;;;;;;10.25;84.33;101298.72;4986747;28;20062;-57
2022/04/15 06:43:09;;;;;;;47.33;19.33;;;;;;;10.06;83.99;101298.66;4982525;28;20479;-57
2022/04/15 06:45:37;;;;;;;45.65;15.98;;;;;;;9.88;83.87;101308.06;4983933;28;20130;-57
2022/04/15 06:48:05;;;;;;;46.80;14.07;;;;;;;9.68;83.38;101305.41;4984284;28;20050;-57
2022/04/15 06:50:35;;;;;;;39.90;13.27;;;;;;;9.48;83.28;101308.75;4983288;28;20459;-57
2022/04/15 06:53:02;;;;;;;38.85;13.93;;;;;;;9.33;83.21;101318.13;4984184;28;20049;-56
2022/04/15 06:55:30;;;;;;;32.38;12.88;;;;;;;9.18;83.69;101313.75;4990416;28;20395;-54
2022/04/15 06:57:58;;;;;;;30.77;12.75;;;;;;;9.07;83.73;101316.25;4993612;28;20464;-57
2022/04/15 07:00:26;;;;;;;30.48;12.98;;;;;;;9.01;84.21;101323.09;4993776;28;20061;-57
2022/04/15 07:02:54;;;;;;;31.33;11.65;;;;;;;8.96;84.60;101327.38;4993581;28;20066;-57
2022/04/15 07:05:25;;;;;;;24.17;11.10;;;;;;;8.90;84.42;101325.63;4991554;28;20043;-57
2022/04/15 07:07:57;;;;;;;28.33;11.32;;;;;;;8.89;84.86;101325.59;4987564;28;20398;-57
2022/04/15 07:10:27;;;;;;;22.10;11.07;;;;;;;8.83;84.65;101329.84;4990423;28;20050;-56
2022/04/15 07:12:56;;;;;;;25.23;9.57;;;;;;;8.83;84.61;101337.59;4996875;28;20042;-56
2022/04/15 07:15:25;;;;;;;27.35;11.10;;;;;;;8.84;85.13;101339.38;4995969;28;20050;-54
2022/04/15 07:17:52;;;;;;;21.40;10.10;;;;;;;8.85;84.62;101335.94;4996440;28;20054;-56
2022/04/15 07:20:20;;;;;;;27.70;12.07;;;;;;;8.88;84.95;101344.56;4989669;28;20059;-56
2022/04/15 07:22:48;;;;;;;27.48;11.75;;;;;;;8.85;85.37;101335.94;4988991;28;20053;-56
2022/04/15 07:25:18;;;;;;;27.10;11.63;;;;;;;8.88;84.68;101339.38;4988602;28;20061;-56
2022/04/15 07:27:48;;;;;;;25.17;11.43;;;;;;;8.89;84.98;101341.13;4986158;28;20062;-56
2022/04/15 07:30:18;;;;;;;27.13;12.40;;;;;;;8.92;84.81;101346.31;4977950;28;20062;-56
2022/04/15 07:32:48;;;;;;;24.08;12.05;;;;;;;8.88;84.47;101344.56;4977952;28;20113;-53
2022/04/15 07:35:16;;;;;;;25.27;12.63;;;;;;;8.88;84.43;101344.56;4977853;28;20074;-56
2022/04/15 07:37:45;;;;;;;20.30;9.90;;;;;;;8.89;84.56;101351.47;4992606;28;20054;-56
2022/04/15 07:40:16;;;;;;;21.35;10.48;;;;;;;8.92;84.36;101341.13;4997143;28;20050;-55
2022/04/15 07:42:46;;;;;;;21.17;10.80;;;;;;;8.99;84.37;101353.25;4991141;28;20042;-53
2022/04/15 07:45:12;;;;;;;19.73;10.30;;;;;;;9.08;84.67;101361.09;4993332;28;20049;-55
2022/04/15 07:47:40;;;;;;;18.50;9.85;;;;;;;9.18;84.80;101360.28;4992157;28;20050;-53
2022/04/15 07:50:09;;;;;;;14.95;9.07;;;;;;;9.28;84.08;101356.06;4992458;28;20372;-56
2022/04/15 07:52:37;;;;;;;17.92;9.93;;;;;;;9.37;84.04;101362.19;4987795;28;20042;-55
2022/04/15 07:55:05;;;;;;;13.55;8.00;;;;;;;9.47;84.01;101363.09;4995556;28;20061;-55
2022/04/15 07:57:34;;;;;;;13.38;8.52;;;;;;;9.52;82.55;101369.16;4995943;28;20050;-56
2022/04/15 08:00:06;;;;;;;16.67;8.95;;;;;;;9.56;81.98;101367.47;4987295;28;20054;-56
2022/04/15 08:02:37;;;;;;;13.65;8.32;;;;;;;9.63;81.76;101369.22;4988359;28;20078;-54
2022/04/15 08:05:05;;;;;;;16.23;9.57;;;;;;;9.64;80.23;101363.19;4993257;28;20387;-56
2022/04/15 08:07:33;;;;;;;13.43;7.88;;;;;;;9.67;80.69;101365.78;4995301;28;20058;-56
2022/04/15 08:10:01;;;;;;;15.35;8.82;;;;;;;9.71;80.31;101367.53;4992005;28;20050;-56
2022/04/15 08:12:29;;;;;;;14.30;9.10;;;;;;;9.74;79.41;101380.50;4993645;28;20054;-56
2022/04/15 08:14:59;;;;;;;16.25;9.32;;;;;;;9.77;79.27;101380.50;4993614;28;20050;-56
2022/04/15 08:17:32;;;;;;;16.42;9.05;;;;;;;9.78;78.82;101382.25;4991375;28;20763;-56
2022/04/15 08:20:00;;;;;;;19.08;11.02;;;;;;;9.76;79.45;101389.13;4996260;28;20145;-56
2022/04/15 08:22:28;;;;;;;15.60;10.45;;;;;;;9.75;79.11;101395.19;4995856;28;20047;-55
2022/04/15 08:24:56;;;;;;;16.02;8.65;;;;;;;9.75;78.39;101395.19;4995275;28;20065;-52
2022/04/15 08:27:26;;;;;;;14.15;10.13;;;;;;;9.76;78.62;101397.78;4995550;28;20054;-53
2022/04/15 08:29:54;;;;;;;14.48;9.68;;;;;;;9.72;78.42;101400.34;4995355;28;20076;-53
2022/04/15 08:32:26;;;;;;;13.65;9.30;;;;;;;9.71;78.54;101398.59;4995470;28;20483;-53
2022/04/15 08:34:55;;;;;;;14.98;9.13;;;;;;;9.70;78.21;101402.91;4995717;28;20063;-53
2022/04/15 08:37:23;;;;;;;15.98;10.35;;;;;;;9.71;78.20;101406.38;4995462;28;20366;-54
2022/04/15 08:39:50;;;;;;;15.02;9.90;;;;;;;9.67;78.61;101407.22;4995275;28;20384;-55
2022/04/15 08:42:21;;;;;;;18.35;11.65;;;;;;;9.62;77.97;101408.91;4990142;28;20058;-56
2022/04/15 08:44:50;;;;;;;19.42;13.05;;;;;;;9.54;77.94;101416.63;4991033;28;20057;-56
2022/04/15 08:47:19;;;;;;;19.35;12.88;;;;;;;9.47;77.73;101418.31;4986207;28;20081;-52
2022/04/15 08:49:46;;;;;;;22.58;13.02;;;;;;;9.43;78.88;101424.31;4992249;28;20046;-56
2022/04/15 08:52:17;;;;;;;22.65;13.73;;;;;;;9.39;78.08;101412.22;4981892;28;20088;-55
2022/04/15 08:54:46;;;;;;;23.20;14.55;;;;;;;9.35;78.06;101430.28;4986345;28;20043;-53
2022/04/15 08:57:13;;;;;;;26.92;16.63;;;;;;;9.29;78.50;101431.09;4989105;28;20046;-54
2022/04/15 08:59:41;;;;;;;21.85;15.20;;;;;;;9.23;78.06;101431.03;4990855;28;20050;-54
2022/04/15 09:02:14;;;;;;;28.98;16.80;;;;;;;9.23;79.32;101436.22;4988607;28;20650;-54
2022/04/15 09:04:44;;;;;;;28.77;17.70;;;;;;;9.24;79.20;101437.09;4987472;28;20058;-55
2022/04/15 09:07:21;;;;;;;26.33;16.60;;;;;;;9.23;78.72;101436.22;4988263;28;20050;-53
2022/04/15 09:09:54;;;;;;;29.55;18.05;;;;;;;9.19;78.01;101444.81;4990124;28;20061;-55
2022/04/15 09:12:25;;;;;;;28.77;17.48;;;;;;;9.17;78.29;101446.50;4994992;28;20069;-56
2022/04/15 09:14:58;;;;;;;30.20;17.75;;;;;;;9.11;78.59;101449.03;4980597;28;20116;-56
2022/04/15 09:17:28;;;;;;;31.23;18.60;;;;;;;9.06;78.10;101449.00;4982241;28;20050;-55
2022/04/15 09:19:58;;;;;;;27.10;16.63;;;;;;;9.03;78.87;101454.16;4992947;28;20074;-55
2022/04/15 09:22:30;;;;;;;31.02;18.38;;;;;;;9.01;78.04;101455.88;4993365;28;20058;-55
2022/04/15 09:24:58;;;;;;;34.13;18.33;;;;;;;8.95;77.81;101454.94;4993425;28;20053;-56
2022/04/15 09:27:29;;;;;;;38.65;21.20;;;;;;;8.93;78.09;101466.97;4992942;28;20140;-56
2022/04/15 09:29:59;;;;;;;39.75;20.30;;;;;;;8.93;78.61;101466.97;4992984;28;20112;-56
2022/04/15 09:32:29;;;;;;;43.03;19.60;;;;;;;8.84;78.36;101466.03;4992535;28;20054;-56
2022/04/15 09:34:58;;;;;;;39.42;20.48;;;;;;;8.75;78.22;101473.66;4992920;28;20054;-56
2022/04/15 09:37:30;;;;;;;40.15;20.75;;;;;;;8.67;78.98;101484.78;4993655;28;20047;-56
2022/04/15 09:40:09;;;;;;;47.88;22.10;;;;;;;8.61;78.97;101490.75;4994141;28;20046;-56
2022/04/15 09:42:43;;;;;;;48.08;22.13;;;;;;;8.58;79.24;101484.69;4994409;28;20090;-56
2022/04/15 09:45:17;;;;;;;41.75;19.88;;;;;;;8.49;79.31;101482.84;4994836;28;20059;-55
2022/04/15 09:47:51;;;;;;;48.60;22.15;;;;;;;8.42;79.31;101493.97;4994792;28;20078;-56
2022/04/15 09:50:26;;;;;;;39.38;19.63;;;;;;;8.37;79.71;101493.03;4994981;28;20085;-56
2022/04/15 09:53:07;;;;;;;38.25;18.77;;;;;;;8.31;79.83;101488.59;4994829;28;20046;-56
2022/04/15 09:55:36;;;;;;;34.50;16.40;;;;;;;8.30;80.02;101494.63;4975449;28;20083;-56
2022/04/15 09:58:09;;;;;;;30.25;15.68;;;;;;;8.29;79.44;101492.88;4975451;28;20046;-55
2022/04/15 10:00:39;;;;;;;30.92;14.45;;;;;;;8.23;79.59;101500.56;4975411;28;20129;-56
2022/04/15 10:03:09;;;;;;;31.73;15.02;;;;;;;8.18;79.77;101499.63;4989986;28;20046;-54
2022/04/15 10:05:38;;;;;;;29.65;12.68;;;;;;;8.13;79.55;101502.16;4994598;28;20054;-53
2022/04/15 10:08:09;;;;;;;27.48;12.55;;;;;;;8.02;79.84;101508.88;4994552;28;20049;-54
2022/04/15 10:10:37;;;;;;;20.65;9.70;;;;;;;7.97;79.85;101502.78;4994333;28;20050;-55
2022/04/15 10:13:07;;;;;;;22.52;9.35;;;;;;;7.92;79.99;101507.00;4994375;28;20046;-56
2022/04/15 10:15:37;;;;;;;17.35;8.07;;;;;;;7.87;80.41;101504.38;4994354;28;20046;-55
2022/04/15 10:18:05;;;;;;;15.00;7.13;;;;;;;7.87;80.04;101519.00;4993065;28;20065;-53
2022/04/15 10:20:33;;;;;;;14.18;7.50;;;;;;;7.84;79.99;101519.81;4993275;28;20486;-55
2022/04/15 10:23:06;;;;;;;10.82;5.82;;;;;;;7.88;80.18;101520.72;4993468;28;20050;-56
2022/04/15 10:25:37;;;;;;;12.73;5.35;;;;;;;7.86;79.87;101532.75;4993001;28;20051;-56
2022/04/15 10:28:10;;;;;;;10.93;5.55;;;;;;;7.82;80.28;101531.81;4993741;28;20498;-56
2022/04/15 10:30:39;;;;;;;10.27;4.95;;;;;;;7.82;80.60;101537.00;4994484;28;20061;-57
2022/04/15 10:33:06;;;;;;;9.27;4.70;;;;;;;7.82;80.67;101536.13;4994230;28;20058;-56
2022/04/15 10:35:36;;;;;;;10.23;5.32;;;;;;;7.79;81.22;101547.22;4994228;28;20065;-57
2022/04/15 10:38:10;;;;;;;12.43;6.80;;;;;;;7.76;82.14;101551.47;4995294;28;20050;-56
2022/04/15 10:40:44;;;;;;;13.02;6.35;;;;;;;7.69;82.30;101554.81;5000952;28;20077;-56
2022/04/15 10:43:20;;;;;;;12.43;6.50;;;;;;;7.62;82.47;101542.66;5000567;28;20479;-55
2022/04/15 10:45:48;;;;;;;13.93;7.75;;;;;;;7.58;82.95;101558.09;5000541;28;20078;-57
2022/04/15 10:48:29;;;;;;;16.55;8.07;;;;;;;7.53;82.97;101541.66;5000490;28;20072;-54
2022/04/15 10:50:57;;;;;;;14.23;7.18;;;;;;;7.46;82.72;101557.00;5000508;28;20490;-56
2022/04/15 10:53:33;;;;;;;16.15;7.97;;;;;;;7.38;83.21;101564.63;5000478;28;20162;-57
2022/04/15 10:56:14;;;;;;;15.18;7.25;;;;;;;7.35;83.51;101567.16;5000248;28;20551;-56
2022/04/15 11:01:13;;;;;;;17.75;9.15;;;;;;;7.29;83.34;101567.03;5000904;28;20054;-56
2022/04/15 11:01:50;;;;;;;17.65;7.80;;;;;;;7.28;83.38;101567.84;4999941;28;20042;-55
2022/04/15 11:04:23;;;;;;;22.05;8.85;;;;;;;7.21;84.12;101568.56;5000076;28;20402;-55
2022/04/15 11:06:51;;;;;;;22.05;9.40;;;;;;;7.21;83.82;101571.16;5000296;28;20447;-56
2022/04/15 11:09:22;;;;;;;20.60;7.88;;;;;;;7.21;83.28;101576.31;5000613;28;20065;-55
2022/04/15 11:11:53;;;;;;;19.08;7.90;;;;;;;7.15;83.38;101566.75;5000276;28;20375;-56
2022/04/15 11:14:34;;;;;;;20.10;8.02;;;;;;;7.08;83.47;101570.06;5000318;28;20065;-56
2022/04/15 11:17:02;;;;;;;21.90;8.82;;;;;;;7.00;84.07;101575.91;4999913;28;20042;-56
2022/04/15 11:19:30;;;;;;;17.05;8.00;;;;;;;6.96;84.29;101581.00;5000267;28;20050;-55
2022/04/15 11:22:01;;;;;;;15.63;8.05;;;;;;;6.95;84.17;101579.25;5000396;28;20053;-56
2022/04/15 11:24:32;;;;;;;18.15;8.13;;;;;;;6.92;84.35;101583.50;5000424;28;20046;-56